Sunday, May 27, 2018, 11:39 AM EDT
Back to Local

KJST, Johnstown-cambria Co Airport

Location: Johnstown, PA, United States Lat: 40.317
Local Time: 11:39 AM EDT (15:39 GMT) Lon: -78.833
Time Zone: US/Eastern Elev: 2283 ft

Show me the last for .
Show Coded

Time T Td Feel RH Dir Speed Gust Alt SLP Vis Weather Sky Remarks
2018-05-27 11:12 70 67 - 90 290° 5 - 30.00 - 10 SCT008 BKN018 OVC038 1-hr Precip Total: Trace
2018-05-27 10:54 68 65 - 89 230° 3 - 30.01 29.97 10 -RA OVC009 1-hr Precip Total: 0.01"
6-hr Precip Total (11am): 0.01"
2018-05-27 10:25 68 65 - 89 190° 3 - 30.01 - 10 -RA BKN008 OVC015 1-hr Precip Total: Trace
2018-05-27 10:19 68 65 - 89 180° 3 - 30.01 - 10 VCTS SCT008 BKN013 OVC018 1-hr Precip Total: Trace
2018-05-27 10:11 68 65 - 89 160° 3 - 30.00 - 10 VCTS BKN010 OVC016 1-hr Precip Total: Trace
2018-05-27 09:54 68 65 - 89 200° 5 - 30.00 29.96 9 -RA FEW008 BKN016 OVC024 1-hr Precip Total: Trace
2018-05-27 08:54 68 65 - 89 160° 3 - 30.00 29.96 7 -RA FEW004 BKN029 OVC055 1-hr Precip Total: Trace
2018-05-27 08:51 66 64 - 93 120° 5 - 30.00 - 7 -RA FEW004 BKN029 OVC055 1-hr Precip Total: Trace
2018-05-27 08:41 68 65 - 89 140° 3 - 30.00 - 10 FEW023 SCT030 BKN040 None
2018-05-27 08:06 67 65 - 93 200° 5 - 29.99 - 10 SCT002 BKN024 BKN110 None
2018-05-27 07:54 66 64 - 93 - Calm - 29.98 29.93 6 BR BKN002 6-hr Precip Total (8am): 0.23"
24-hr Precip Total (8am): 0.25"
6-hr Min Temp (8am): 64.9°F
6-hr Max Temp (8am): 66.9°F
2018-05-27 07:47 65 64 - 96 230° 3 - 29.98 - 4 BR OVC002 None
2018-05-27 07:33 65 64 - 96 230° 6 - 29.98 - 2 BR OVC002 Variable visibility
2018-05-27 07:23 65 64 - 96 240° 6 - 29.98 - 0 BR BKN002 BKN030 OVC065 None
2018-05-27 07:14 65 64 - 96 230° 6 - 29.97 - 0 FG SCT002 BKN031 OVC065 None
2018-05-27 07:07 65 64 - 96 250° 6 - 29.97 - 1 BR FEW002 SCT031 OVC065 None
2018-05-27 07:01 65 64 - 96 220° 5 - 29.97 - 6 BR FEW002 BKN065 OVC085 None
2018-05-27 06:54 65 64 - 96 170° 5 - 29.96 29.91 2 BR SCT002 SCT033 OVC070 None
2018-05-27 06:44 65 64 - 96 200° 5 - 29.96 - 1 BR SCT001 BKN031 OVC090 None
2018-05-27 06:28 65 63 - 93 230° 3 - 29.96 - 0 FG SCT002 BKN042 OVC080 None
2018-05-27 06:24 65 63 - 93 230° 3 - 29.96 - 1 BR FEW002 BKN042 OVC080 None
2018-05-27 05:54 65 63 - 93 - Calm - 29.95 29.90 4 BR SCT002 OVC085 None
2018-05-27 05:51 64 63 - 93 - Calm - 29.95 - 3 BR FEW002 OVC085 None
2018-05-27 05:39 65 63 - 93 - Calm - 29.95 - 2 BR SCT002 OVC090 None
2018-05-27 05:32 65 63 - 93 - Calm - 29.95 - 3 BR SCT002 OVC085 None
2018-05-27 05:03 65 63 - 93 180° 6 - 29.95 - 4 BR BKN002 OVC110 None
2018-05-27 04:54 65 63 - 93 160° 5 - 29.94 29.89 3 BR BKN003 OVC100 1-hr Precip Total: 0.03"
6-hr Precip Total (5am): 0.23"
2018-05-27 04:46 65 63 - 93 160° 5 - 29.94 - 1 -RA BR BKN003 OVC110 1-hr Precip Total: 0.03"
2018-05-27 04:41 65 63 - 93 160° 5 - 29.94 - 0 -RA BR BKN005 BKN120 1-hr Precip Total: 0.03"
2018-05-27 04:33 65 63 - 93 150° 3 - 29.95 - 1 -RA BR SCT007 SCT090 OVC110 1-hr Precip Total: 0.03"
2018-05-27 04:17 65 63 - 93 - Calm - 29.95 - 4 -RA BR FEW005 BKN095 OVC110 1-hr Precip Total: 0.02"
2018-05-27 04:03 65 64 - 96 190° 3 - 29.96 - 3 RA BR SCT005 BKN023 OVC095 1-hr Precip Total: 0.01"
2018-05-27 03:54 66 64 - 93 210° 6 - 29.97 29.91 1 RA BR SCT003 BKN017 OVC100 1-hr Precip Total: 0.16"
2018-05-27 03:24 66 64 - 93 - Calm - 29.97 - 1 RA BR FEW009 BKN060 OVC085 1-hr Precip Total: 0.05"
2018-05-27 03:12 66 64 - 93 - Calm - 29.96 - 2 -RA BR FEW008 BKN060 OVC090 1-hr Precip Total: 0.02"
2018-05-27 02:54 66 64 - 93 - Calm - 29.96 29.91 4 -RA BR BKN090 OVC110 1-hr Precip Total: 0.04"
2018-05-27 01:54 66 64 - 93 - Calm - 29.95 29.89 7 -RA OVC100 1-hr Precip Total: Trace
6-hr Precip Total (2am): 0.02"
6-hr Min Temp (2am): 66.0°F
6-hr Max Temp (2am): 75.0°F
2018-05-27 00:54 66 64 - 93 - Calm - 29.94 29.89 9 OVC100 1-hr Precip Total: 0.01"
24-hr Min Temp (1am): 63.0°F
24-hr Max Temp (1am): 82.0°F
2018-05-26 23:54 66 64 - 93 250° 5 - 29.95 29.90 8 -RA OVC100 1-hr Precip Total: Trace
2018-05-26 22:54 68 63 - 83 230° 5 - 29.95 29.91 10 -RA BKN100 1-hr Precip Total: Trace
6-hr Precip Total (11pm): 0.01"
2018-05-26 21:54 70 63 - 78 220° 8 - 29.96 29.91 10 FEW110 1-hr Precip Total: Trace
2018-05-26 20:54 69 63 - 80 - Calm - 29.94 29.89 10 -RA BKN050 BKN060 OVC080 1-hr Precip Total: 0.01"
2018-05-26 19:54 76 61 78 59 320° 6 - 29.91 29.86 10 -RA OVC085 1-hr Precip Total: Trace
6-hr Precip Total (8pm): 0.00"
6-hr Min Temp (8pm): 75.9°F
6-hr Max Temp (8pm): 82.0°F
2018-05-26 18:54 78 59 80 51 320° 3 - 29.89 29.85 10 SCT085 OVC120 None
2018-05-26 17:54 79 58 80 48 310° 6 - 29.90 29.85 10 FEW085 None
2018-05-26 16:54 80 58 81 46 310° 8 - 29.90 29.85 10 BKN085 None
2018-05-26 15:54 80 59 81 48 320° 8 - 29.90 29.85 10 FEW055 None
2018-05-26 14:54 80 58 81 46 300° 10 - 29.91 29.86 10 FEW050 SCT065 None
2018-05-26 13:54 81 59 82 47 300° 8 - 29.93 29.87 10 FEW055 6-hr Min Temp (2pm): 68.0°F
6-hr Max Temp (2pm): 81.0°F
2018-05-26 12:54 79 58 80 48 Variable 6 16 29.94 29.89 10 FEW055 None
2018-05-26 11:54 79 60 80 52 280° 9 - 29.94 29.89 10 FEW046 None

Support USWX by starting your Amazon purchase here.